Time;durP1;ratioP1;P1;durP2;ratioP2;P2;SDS_P1;SDS_P2;PMS_P1;PMS_P2;Temp;Humidity;BMP_temperature;BMP_pressure;BME280_temperature;BME280_humidity;BME280_pressure;Samples;Min_cycle;Max_cycle;Signal;HPM_P1;HPM_P2
2023/02/15 00:00:11;;;;;;;53.90;28.03;;;;;;;1.73;77.01;97551.75;4971840;28;20201;-73
2023/02/15 00:02:37;;;;;;;55.10;27.17;;;;;;;1.88;77.11;97554.47;4972190;28;20237;-72
2023/02/15 00:05:02;;;;;;;76.40;32.80;;;;;;;1.16;78.95;97552.84;4971818;28;20232;-71
2023/02/15 00:07:28;;;;;;;67.57;34.07;;;;;;;1.33;78.53;97545.31;4971770;28;20517;-71
2023/02/15 00:09:53;;;;;;;75.83;35.23;;;;;;;1.63;77.37;97544.72;4971348;28;20313;-72
2023/02/15 00:12:18;;;;;;;68.90;36.10;;;;;;;1.93;77.08;97540.69;4971296;28;20180;-72
2023/02/15 00:14:44;;;;;;;58.77;32.17;;;;;;;1.64;77.27;97539.56;4971498;28;20181;-72
2023/02/15 00:17:10;;;;;;;60.07;32.80;;;;;;;2.20;76.25;97537.47;4971039;28;20178;-72
2023/02/15 00:19:35;;;;;;;54.40;29.40;;;;;;;1.75;77.20;97534.53;4970765;28;20206;-72
2023/02/15 00:22:01;;;;;;;53.97;27.37;;;;;;;1.73;77.19;97533.63;4971095;28;20205;-72
2023/02/15 00:24:27;;;;;;;54.17;23.87;;;;;;;1.40;77.37;97541.94;4971679;28;20182;-73
2023/02/15 00:26:52;;;;;;;43.83;23.90;;;;;;;1.36;78.02;97535.84;4971142;28;20690;-72
2023/02/15 00:29:19;;;;;;;50.80;27.13;;;;;;;1.47;76.92;97535.97;4971447;28;20237;-73
2023/02/15 00:31:45;;;;;;;56.53;27.67;;;;;;;1.65;77.04;97532.69;4971283;28;20180;-72
2023/02/15 00:34:11;;;;;;;54.83;24.50;;;;;;;1.48;78.46;97532.53;4971464;28;20421;-72
2023/02/15 00:36:37;;;;;;;55.07;23.70;;;;;;;1.35;79.25;97525.50;4970962;28;20169;-72
2023/02/15 00:39:04;;;;;;;44.50;23.33;;;;;;;1.26;79.48;97529.72;4971498;28;20444;-72
2023/02/15 00:41:30;;;;;;;44.00;19.87;;;;;;;1.37;78.39;97526.38;4970963;28;20206;-75
2023/02/15 00:43:56;;;;;;;70.83;18.10;;;;;;;1.18;78.44;97530.47;4971009;28;20413;-73
2023/02/15 00:46:21;;;;;;;34.57;17.40;;;;;;;1.30;79.63;97530.63;4970908;28;20487;-72
2023/02/15 00:48:47;;;;;;;41.40;21.70;;;;;;;1.48;77.44;97525.63;4971394;28;20200;-73
2023/02/15 00:51:12;;;;;;;45.60;22.87;;;;;;;1.24;78.25;97520.22;4971246;28;20170;-72
2023/02/15 00:53:38;;;;;;;28.53;17.90;;;;;;;1.41;78.52;97522.97;4971692;28;20185;-73
2023/02/15 00:56:03;;;;;;;40.93;19.67;;;;;;;1.45;78.05;97523.00;4971330;28;20236;-72
2023/02/15 00:58:29;;;;;;;40.33;19.90;;;;;;;1.80;77.09;97512.13;4971217;28;20204;-72
2023/02/15 01:00:54;;;;;;;33.83;20.50;;;;;;;1.96;76.32;97513.13;4970859;28;20183;-73
2023/02/15 01:03:20;;;;;;;42.23;24.00;;;;;;;2.16;75.54;97507.22;4970941;28;20208;-72
2023/02/15 01:05:48;;;;;;;49.27;26.80;;;;;;;2.31;74.54;97518.53;4970774;28;20205;-72
2023/02/15 01:08:13;;;;;;;43.60;27.10;;;;;;;1.95;74.05;97510.53;4970594;28;20447;-72
2023/02/15 01:10:39;;;;;;;40.80;27.00;;;;;;;1.87;75.00;97507.88;4970864;28;20429;-72
2023/02/15 01:13:04;;;;;;;41.50;27.70;;;;;;;1.73;74.96;97505.16;4970250;28;20257;-72
2023/02/15 01:15:30;;;;;;;39.10;24.30;;;;;;;1.64;75.01;97499.91;4970648;28;20241;-72
2023/02/15 01:17:55;;;;;;;43.03;28.03;;;;;;;1.62;74.59;97511.97;4970220;28;20204;-72
2023/02/15 01:20:24;;;;;;;42.97;24.80;;;;;;;1.19;77.18;97503.78;4970893;28;20205;-72
2023/02/15 01:22:50;;;;;;;50.90;26.83;;;;;;;1.08;77.76;97505.38;4971854;28;20232;-72
2023/02/15 01:25:20;;;;;;;47.10;30.37;;;;;;;1.36;77.50;97509.13;4978193;28;20409;-73
2023/02/15 01:27:46;;;;;;;59.20;30.90;;;;;;;1.55;77.01;97503.28;4977534;28;20245;-72
2023/02/15 01:30:12;;;;;;;54.90;30.23;;;;;;;1.21;78.58;97507.25;4973247;28;20536;-72
2023/02/15 01:32:38;;;;;;;50.43;30.10;;;;;;;1.01;79.88;97496.69;4959204;29;20286;-72
2023/02/15 01:35:04;;;;;;;58.70;32.60;;;;;;;1.37;79.66;97505.66;4958420;29;20480;-72
2023/02/15 01:37:33;;;;;;;51.90;28.83;;;;;;;1.39;79.04;97507.41;4960410;29;20170;-72
2023/02/15 01:39:59;;;;;;;52.33;29.00;;;;;;;1.14;79.95;97497.69;4960823;29;20197;-73
2023/02/15 01:42:26;;;;;;;57.37;26.37;;;;;;;1.26;79.79;97500.41;4953913;29;20516;-72
2023/02/15 01:44:55;;;;;;;55.30;29.30;;;;;;;1.64;78.66;97492.16;4950959;29;20780;-72
2023/02/15 01:47:45;;;;;;;45.13;26.40;;;;;;;1.69;77.98;97493.91;4950004;28;20398;-72
2023/02/15 01:50:40;;;;;;;75.00;29.17;;;;;;;1.44;77.35;97487.66;4950964;29;20449;-72
2023/02/15 01:53:17;;;;;;;48.27;23.63;;;;;;;1.18;79.28;97489.09;4950999;29;20483;-72
2023/02/15 01:55:50;;;;;;;53.93;29.10;;;;;;;1.28;78.74;97485.78;4950568;29;20461;-71
2023/02/15 01:58:16;;;;;;;36.10;21.53;;;;;;;1.21;79.15;97484.00;4950977;29;20453;-71
2023/02/15 02:00:43;;;;;;;46.70;20.33;;;;;;;1.40;78.70;97478.13;4950907;29;20489;-71
2023/02/15 02:03:08;;;;;;;30.50;17.27;;;;;;;1.34;79.19;97484.97;4950746;29;20469;-72
2023/02/15 02:05:34;;;;;;;39.53;21.27;;;;;;;1.16;79.21;97486.53;4951064;29;20413;-71
2023/02/15 02:08:02;;;;;;;33.67;16.30;;;;;;;1.03;79.29;97480.34;4950506;29;20189;-72
2023/02/15 02:10:28;;;;;;;39.63;21.47;;;;;;;1.29;78.36;97489.22;4949682;29;20213;-71
2023/02/15 02:13:02;;;;;;;51.90;18.80;;;;;;;0.97;79.27;97484.56;4950738;29;21187;-75
2023/02/15 02:15:46;;;;;;;34.33;17.40;;;;;;;1.02;78.95;97485.50;4950694;29;20413;-73
2023/02/15 02:18:49;;;;;;;27.00;16.17;;;;;;;1.60;78.22;97482.63;4950334;29;20452;-73
2023/02/15 02:21:40;;;;;;;42.80;23.50;;;;;;;1.63;76.46;97480.94;4950399;29;20410;-73
2023/02/15 02:24:42;;;;;;;49.97;27.63;;;;;;;2.05;75.26;97483.84;4950298;29;20421;-72
2023/02/15 02:27:07;;;;;;;50.50;30.80;;;;;;;2.08;75.22;97478.69;4950613;28;20421;-72
2023/02/15 02:30:02;;;;;;;54.03;31.63;;;;;;;2.04;74.96;97474.34;4951207;28;20444;-70
2023/02/15 02:32:45;;;;;;;57.63;30.87;;;;;;;2.11;74.87;97473.53;4969883;28;20207;-71
2023/02/15 02:35:42;;;;;;;58.53;27.80;;;;;;;2.18;74.53;97467.53;4969727;28;20431;-72
2023/02/15 02:38:20;;;;;;;70.23;24.93;;;;;;;1.74;75.71;97473.25;4969482;28;20413;-71
2023/02/15 02:41:01;;;;;;;43.93;23.90;;;;;;;1.57;76.12;97461.91;4969518;28;20423;-73
2023/02/15 02:43:45;;;;;;;51.07;24.67;;;;;;;1.43;77.24;97467.81;4969539;28;20412;-72
2023/02/15 02:46:24;;;;;;;50.10;24.47;;;;;;;1.11;78.05;97471.78;4969205;28;20416;-73
2023/02/15 02:48:50;;;;;;;45.73;23.17;;;;;;;1.15;78.21;97464.09;4969762;28;20428;-72
2023/02/15 02:51:21;;;;;;;46.87;23.90;;;;;;;1.41;77.55;97461.75;4969649;28;20464;-72
2023/02/15 02:53:56;;;;;;;55.97;27.10;;;;;;;1.48;77.03;97458.38;4969394;28;20414;-72
2023/02/15 02:56:28;;;;;;;44.60;26.60;;;;;;;1.42;75.99;97460.91;4969183;28;20408;-72
2023/02/15 02:59:04;;;;;;;48.17;26.50;;;;;;;1.26;77.06;97461.63;4971304;28;20531;-73
2023/02/15 03:01:37;;;;;;;55.90;31.43;;;;;;;1.35;76.51;97458.28;4973048;28;20472;-73
2023/02/15 03:04:09;;;;;;;48.90;27.13;;;;;;;1.27;77.27;97465.94;4973115;28;20406;-72
2023/02/15 03:07:12;;;;;;;48.23;25.67;;;;;;;1.08;78.07;97457.13;4972974;28;20440;-72
2023/02/15 03:09:47;;;;;;;63.83;28.40;;;;;;;1.35;75.88;97453.97;4989305;28;20507;-72
2023/02/15 03:12:19;;;;;;;49.30;26.57;;;;;;;1.19;77.84;97454.66;4974673;28;20420;-72
2023/02/15 03:14:50;;;;;;;64.33;36.03;;;;;;;1.58;76.34;97453.28;4972587;28;20484;-72
2023/02/15 03:17:19;;;;;;;67.40;32.40;;;;;;;1.79;74.25;97450.00;4972129;28;20495;-72
2023/02/15 03:19:48;;;;;;;59.43;33.23;;;;;;;1.83;74.46;97444.84;4972053;28;20514;-72
2023/02/15 03:22:19;;;;;;;50.17;32.23;;;;;;;1.95;72.80;97446.66;4971867;28;20460;-72
2023/02/15 03:25:16;;;;;;;65.43;36.33;;;;;;;2.06;73.34;97452.78;4971789;28;20594;-73
2023/02/15 03:27:48;;;;;;;67.53;41.60;;;;;;;2.13;73.07;97458.88;4971912;28;20914;-72
2023/02/15 03:30:16;;;;;;;61.20;34.67;;;;;;;1.99;73.05;97450.16;4965704;28;20441;-72
2023/02/15 03:32:44;;;;;;;61.03;36.67;;;;;;;1.89;73.87;97447.50;4953898;29;20411;-72
2023/02/15 03:35:09;;;;;;;60.80;35.90;;;;;;;2.01;73.45;97451.00;4954160;29;20824;-72
2023/02/15 03:37:37;;;;;;;58.73;34.30;;;;;;;2.12;73.30;97446.75;4953588;29;20425;-72
2023/02/15 03:42:59;;;;;;;51.67;31.73;;;;;;;1.85;74.48;97455.22;4952798;29;20532;-72
2023/02/15 03:45:29;;;;;;;48.73;25.40;;;;;;;1.76;75.37;97458.59;4952774;29;20504;-72
2023/02/15 03:47:57;;;;;;;55.60;29.60;;;;;;;1.96;75.09;97452.69;4952452;29;20468;-73
2023/02/15 03:53:18;;;;;;;39.13;18.80;;;;;;;1.66;76.67;97449.03;4953033;29;20462;-72
2023/02/15 03:55:47;;;;;;;32.33;17.67;;;;;;;1.84;75.34;97448.31;4951206;29;20513;-73
2023/02/15 04:01:58;;;;;;;30.07;14.43;;;;;;;1.58;75.54;97448.09;4952510;29;20413;-72
2023/02/15 04:04:29;;;;;;;23.13;14.17;;;;;;;1.55;75.69;97451.53;4969257;28;21323;-71
2023/02/15 04:06:55;;;;;;;20.70;13.30;;;;;;;1.63;75.68;97456.75;4969045;28;20513;-71
2023/02/15 04:12:05;;;;;;;13.87;9.73;;;;;;;1.82;74.44;97458.66;4969245;28;20345;-71
2023/02/15 04:17:14;;;;;;;16.83;10.10;;;;;;;1.20;77.41;97465.00;4968737;28;20221;-72
2023/02/15 04:25:13;;;;;;;16.47;10.47;;;;;;;1.71;75.28;97457.72;4968591;28;20455;-72
2023/02/15 04:27:41;;;;;;;17.83;11.60;;;;;;;1.75;75.73;97456.00;4967774;28;20481;-73
2023/02/15 04:30:08;;;;;;;16.17;10.90;;;;;;;1.61;75.74;97458.50;4972913;28;20454;-71
2023/02/15 04:32:34;;;;;;;18.37;11.00;;;;;;;1.71;75.43;97459.44;4987562;28;21167;-74
2023/02/15 04:34:59;;;;;;;12.97;10.30;;;;;;;1.84;74.44;97458.66;4977666;28;20516;-72
2023/02/15 04:37:25;;;;;;;18.40;12.30;;;;;;;1.77;74.46;97454.28;4970570;28;20512;-69
2023/02/15 04:39:50;;;;;;;11.60;10.00;;;;;;;1.75;74.50;97450.81;4970029;28;20678;-68
2023/02/15 04:42:16;;;;;;;13.20;10.90;;;;;;;1.64;75.78;97448.16;4969920;28;20620;-68
2023/02/15 04:44:42;;;;;;;17.13;10.50;;;;;;;1.50;75.35;97448.03;4970154;28;20184;-68
2023/02/15 04:47:07;;;;;;;16.93;10.20;;;;;;;1.52;75.99;97450.66;4969631;28;20240;-69
2023/02/15 04:49:33;;;;;;;13.07;10.67;;;;;;;1.47;75.80;97446.31;4969898;28;20432;-68
2023/02/15 04:51:58;;;;;;;17.63;11.47;;;;;;;1.63;75.75;97443.81;4970090;28;20176;-68
2023/02/15 04:54:23;;;;;;;12.73;9.60;;;;;;;1.76;75.11;97452.56;4970879;28;20181;-68
2023/02/15 04:56:49;;;;;;;15.40;11.33;;;;;;;1.88;74.38;97447.47;4971907;28;20209;-68
2023/02/15 04:59:14;;;;;;;20.87;11.23;;;;;;;1.83;73.98;97446.59;4972841;28;20225;-68
2023/02/15 05:01:40;;;;;;;13.73;9.80;;;;;;;1.84;73.77;97438.84;4973869;28;20197;-69
2023/02/15 05:04:05;;;;;;;14.60;10.40;;;;;;;1.85;73.72;97439.69;4976547;28;20245;-68
2023/02/15 05:06:31;;;;;;;15.03;10.53;;;;;;;1.74;74.31;97434.44;4975407;28;20174;-68
2023/02/15 05:08:58;;;;;;;11.60;9.30;;;;;;;1.61;75.37;97435.22;4975235;28;20212;-68
2023/02/15 05:11:25;;;;;;;16.53;11.40;;;;;;;1.54;75.67;97436.88;4970327;28;20260;-69
2023/02/15 05:13:50;;;;;;;14.93;10.83;;;;;;;1.51;75.22;97435.97;4969418;28;20421;-68
2023/02/15 05:16:16;;;;;;;15.00;10.33;;;;;;;1.54;75.37;97441.19;4969119;28;20929;-69
2023/02/15 05:18:41;;;;;;;15.60;10.83;;;;;;;1.54;75.14;97434.28;4969118;28;20246;-68
2023/02/15 05:21:06;;;;;;;13.07;10.57;;;;;;;1.72;74.51;97436.13;4968141;28;20184;-69
2023/02/15 05:23:32;;;;;;;14.47;11.13;;;;;;;1.84;74.11;97436.25;4969266;28;20236;-69
2023/02/15 05:28:41;;;;;;;16.70;11.10;;;;;;;1.72;74.67;97441.31;4969152;28;20237;-68
2023/02/15 05:31:12;;;;;;;14.40;10.87;;;;;;;1.71;74.25;97444.78;4955991;28;20457;-69
2023/02/15 05:33:38;;;;;;;14.20;9.40;;;;;;;1.83;73.58;97447.44;4949861;28;20178;-67
2023/02/15 05:36:04;;;;;;;14.43;9.50;;;;;;;1.83;72.69;97438.81;4949607;28;20880;-68
2023/02/15 05:38:31;;;;;;;11.10;8.80;;;;;;;1.76;72.90;97432.72;4949564;28;20527;-68
2023/02/15 05:40:56;;;;;;;15.90;10.70;;;;;;;1.85;73.43;97437.97;4949698;28;20904;-69
2023/02/15 05:43:22;;;;;;;12.70;10.07;;;;;;;1.88;72.63;97443.16;4949411;29;20461;-69
2023/02/15 05:45:50;;;;;;;15.97;10.63;;;;;;;1.88;72.74;97445.75;4949362;29;20273;-69
2023/02/15 05:48:17;;;;;;;12.47;9.33;;;;;;;1.94;72.56;97439.78;4949606;29;20447;-69
2023/02/15 05:50:43;;;;;;;12.63;11.30;;;;;;;1.83;72.79;97442.28;4949777;29;20414;-69
2023/02/15 05:53:09;;;;;;;14.10;9.70;;;;;;;1.80;72.79;97436.22;4952485;28;20429;-69
2023/02/15 05:55:38;;;;;;;14.77;11.50;;;;;;;1.68;73.77;97434.41;4964427;28;20397;-68
2023/02/15 05:58:04;;;;;;;14.67;10.80;;;;;;;1.79;73.75;97435.31;4964516;28;20654;-68
2023/02/15 06:00:29;;;;;;;13.30;10.03;;;;;;;1.95;72.59;97448.38;4966624;28;20459;-68
2023/02/15 06:02:55;;;;;;;18.07;11.37;;;;;;;1.88;72.64;97444.88;4966751;28;20225;-68
2023/02/15 06:05:20;;;;;;;11.40;9.47;;;;;;;1.69;73.59;97443.88;4966202;28;20192;-70
2023/02/15 06:07:45;;;;;;;14.90;10.70;;;;;;;1.71;73.87;97449.09;4966516;28;20956;-70
2023/02/15 06:10:11;;;;;;;15.00;9.87;;;;;;;1.63;73.84;97455.06;4967050;28;20219;-70
2023/02/15 06:12:37;;;;;;;15.60;10.40;;;;;;;1.67;73.91;97449.03;4965908;28;20583;-69
2023/02/15 06:15:03;;;;;;;14.63;11.13;;;;;;;1.63;73.63;97455.06;4966840;28;20220;-68
2023/02/15 06:17:28;;;;;;;14.20;9.37;;;;;;;1.66;72.99;97456.81;4966231;28;20928;-68
2023/02/15 06:19:54;;;;;;;13.07;10.00;;;;;;;1.65;72.30;97465.41;4966656;28;20464;-70
2023/02/15 06:22:20;;;;;;;14.77;9.67;;;;;;;1.59;72.62;97448.13;4964805;28;20679;-69
2023/02/15 06:24:46;;;;;;;10.07;8.60;;;;;;;1.68;73.17;97460.28;4967871;28;20185;-69
2023/02/15 06:27:11;;;;;;;10.73;8.97;;;;;;;1.82;71.58;97458.66;4953163;28;20425;-69
2023/02/15 06:29:37;;;;;;;16.50;10.67;;;;;;;1.73;72.01;97461.19;4949370;28;20795;-69
2023/02/15 06:32:03;;;;;;;16.90;9.70;;;;;;;1.57;72.18;97473.09;4969982;28;20341;-68
2023/02/15 06:34:28;;;;;;;11.23;9.43;;;;;;;1.55;72.58;97466.19;4972717;28;20185;-68
2023/02/15 06:36:54;;;;;;;11.73;10.10;;;;;;;1.75;71.92;97464.66;4970915;28;20216;-70
2023/02/15 06:39:19;;;;;;;10.90;8.70;;;;;;;1.62;71.90;97463.66;4971960;28;20249;-69
2023/02/15 06:41:44;;;;;;;10.90;8.97;;;;;;;1.62;71.70;97470.56;4971971;28;20205;-69
2023/02/15 06:44:10;;;;;;;11.23;8.87;;;;;;;1.46;72.66;97465.28;4971285;28;20260;-69
2023/02/15 06:46:35;;;;;;;11.10;9.27;;;;;;;1.56;72.26;97467.91;4971537;28;20544;-69
2023/02/15 06:49:00;;;;;;;14.83;10.23;;;;;;;1.51;72.49;97472.19;4971926;28;20220;-69
2023/02/15 06:51:26;;;;;;;12.93;9.53;;;;;;;1.34;73.09;97464.28;4970592;28;20189;-70
2023/02/15 06:53:51;;;;;;;13.90;10.87;;;;;;;1.35;73.84;97477.22;4971280;28;20235;-68
2023/02/15 06:56:17;;;;;;;11.07;9.93;;;;;;;1.41;73.68;97471.25;4970087;28;20194;-69
2023/02/15 06:58:43;;;;;;;17.60;12.30;;;;;;;1.65;73.19;97474.06;4968304;28;20524;-70
2023/02/15 07:01:09;;;;;;;14.33;11.47;;;;;;;1.74;72.63;97464.63;4969980;28;20192;-69
2023/02/15 07:03:35;;;;;;;19.67;11.97;;;;;;;1.89;71.62;97469.91;4969809;28;20201;-67
2023/02/15 07:06:02;;;;;;;21.70;12.10;;;;;;;1.78;70.59;97464.66;4961596;28;20922;-67
2023/02/15 07:08:28;;;;;;;25.93;11.17;;;;;;;1.75;70.45;97467.22;4970681;28;20464;-67
2023/02/15 07:12:40;;;;;;;23.17;13.57;;;;;;;1.30;72.76;97472.84;4970677;28;20416;-67
2023/02/15 07:13:44;;;;;;;24.73;13.60;;;;;;;1.60;72.00;97478.31;4970649;28;20196;-68
2023/02/15 07:16:10;;;;;;;18.50;12.13;;;;;;;1.53;71.73;97478.25;4970144;28;20413;-68
2023/02/15 07:18:35;;;;;;;28.90;14.23;;;;;;;1.21;71.91;97476.22;4969812;28;20597;-68
2023/02/15 07:21:01;;;;;;;25.53;13.37;;;;;;;1.62;71.53;97475.75;4970011;28;20947;-67
2023/02/15 07:23:26;;;;;;;19.03;13.97;;;;;;;1.66;70.16;97469.75;4959663;28;20203;-70
2023/02/15 07:25:59;;;;;;;20.67;14.63;;;;;;;1.73;69.64;97466.34;4979276;28;20227;-67
2023/02/15 07:28:24;;;;;;;29.10;16.23;;;;;;;1.91;69.97;97475.97;4990133;28;20368;-68
2023/02/15 07:30:50;;;;;;;32.90;16.73;;;;;;;1.86;70.02;97478.50;4978982;28;20540;-68
2023/02/15 07:33:26;;;;;;;34.53;19.00;;;;;;;1.84;70.20;97472.50;4970599;28;20227;-68
2023/02/15 07:36:00;;;;;;;23.10;15.40;;;;;;;1.97;70.05;97472.56;4987371;28;20192;-68
2023/02/15 07:38:29;;;;;;;36.40;17.37;;;;;;;2.04;69.49;97475.22;4974835;28;20511;-68
2023/02/15 07:41:03;;;;;;;27.10;16.40;;;;;;;1.99;69.82;97479.50;4987527;28;20540;-68
2023/02/15 07:43:29;;;;;;;25.20;15.50;;;;;;;2.17;69.25;97472.69;4989329;28;20471;-68
2023/02/15 07:45:59;;;;;;;27.23;15.73;;;;;;;2.10;69.42;97471.78;4989668;28;20845;-70
2023/02/15 07:48:24;;;;;;;22.60;15.03;;;;;;;2.11;69.64;97466.63;4989897;28;20436;-68
2023/02/15 07:50:50;;;;;;;24.07;15.20;;;;;;;2.23;69.01;97465.84;4989733;28;20478;-69
2023/02/15 07:53:15;;;;;;;20.63;13.40;;;;;;;2.28;68.55;97466.72;4989688;28;20169;-68
2023/02/15 07:55:41;;;;;;;18.93;13.47;;;;;;;2.20;69.31;97465.81;4988073;28;20529;-69
2023/02/15 07:58:06;;;;;;;22.00;11.77;;;;;;;1.94;70.55;97468.25;4989370;28;20184;-67
2023/02/15 08:00:55;;;;;;;27.13;11.87;;;;;;;1.83;70.52;97462.97;4989801;28;20177;-67
2023/02/15 08:03:17;;;;;;;36.77;15.10;;;;;;;2.01;69.34;97458.78;4989465;28;20217;-69
2023/02/15 08:05:44;;;;;;;23.30;12.07;;;;;;;2.11;69.00;97458.84;4989456;28;20413;-68
2023/02/15 08:08:29;;;;;;;21.43;13.37;;;;;;;2.09;68.42;97462.28;4969328;28;20192;-68
2023/02/15 08:11:33;;;;;;;29.10;15.80;;;;;;;2.01;69.39;97458.78;4969641;28;20436;-68
2023/02/15 08:14:06;;;;;;;16.80;11.80;;;;;;;1.99;68.96;97461.38;4958948;28;20413;-69
2023/02/15 08:16:33;;;;;;;16.57;12.93;;;;;;;1.89;69.80;97457.84;4950218;28;20422;-68
2023/02/15 08:19:01;;;;;;;27.97;12.83;;;;;;;2.01;69.21;97463.94;4950375;28;20496;-68
2023/02/15 08:21:28;;;;;;;17.80;12.00;;;;;;;2.18;68.09;97464.94;4950502;28;20421;-67
2023/02/15 08:23:54;;;;;;;22.00;13.40;;;;;;;2.18;69.25;97448.56;4964264;28;20431;-68
2023/02/15 08:26:21;;;;;;;17.87;12.20;;;;;;;2.17;69.19;97455.44;4969845;28;21266;-68
2023/02/15 08:28:46;;;;;;;15.90;12.40;;;;;;;1.89;69.88;97449.19;4969910;28;20433;-68
2023/02/15 08:31:13;;;;;;;17.70;11.70;;;;;;;1.96;68.88;97448.41;4955786;28;20969;-68
2023/02/15 08:33:41;;;;;;;15.27;11.50;;;;;;;1.89;69.23;97444.91;4956072;28;20190;-68
2023/02/15 08:36:15;;;;;;;17.87;12.87;;;;;;;2.13;69.21;97440.75;4961023;28;20456;-68
2023/02/15 08:38:41;;;;;;;16.40;11.80;;;;;;;1.94;69.54;97447.53;4969353;28;20448;-69
2023/02/15 08:41:24;;;;;;;18.27;12.43;;;;;;;1.93;69.15;97450.09;4969358;28;20443;-69
2023/02/15 08:43:53;;;;;;;19.10;11.90;;;;;;;2.17;68.97;97434.72;4969237;28;20941;-68
2023/02/15 08:46:19;;;;;;;21.00;12.13;;;;;;;2.14;69.32;97437.28;4970136;28;20424;-69
2023/02/15 08:48:45;;;;;;;15.00;11.37;;;;;;;2.18;68.65;97439.06;4977620;28;20440;-69
2023/02/15 08:51:13;;;;;;;15.13;10.83;;;;;;;2.22;68.54;97438.22;4988244;28;20208;-66
2023/02/15 08:53:40;;;;;;;15.30;11.73;;;;;;;2.21;69.06;97430.44;4973214;28;21108;-68
2023/02/15 08:56:07;;;;;;;14.83;12.03;;;;;;;1.96;69.71;97437.16;4968780;28;20801;-67
2023/02/15 08:58:33;;;;;;;16.53;11.30;;;;;;;1.83;70.02;97439.69;4967477;28;20449;-67
2023/02/15 09:00:58;;;;;;;15.90;12.43;;;;;;;2.06;69.91;97439.84;4967455;28;20480;-68
2023/02/15 09:03:24;;;;;;;14.37;11.17;;;;;;;2.28;68.97;97439.97;4968327;28;20583;-68
2023/02/15 09:05:50;;;;;;;18.80;12.50;;;;;;;2.31;68.13;97442.56;4968648;28;20181;-68
2023/02/15 09:08:15;;;;;;;23.97;13.73;;;;;;;2.19;68.27;97450.25;4968648;28;20258;-67
2023/02/15 09:10:41;;;;;;;44.10;16.73;;;;;;;2.31;68.34;97439.97;4968612;28;20173;-68
2023/02/15 09:13:06;;;;;;;23.70;13.90;;;;;;;2.21;68.85;97433.88;4968981;28;20173;-67
2023/02/15 09:15:32;;;;;;;21.10;14.23;;;;;;;2.34;68.56;97450.38;4968631;28;20170;-69
2023/02/15 09:18:01;;;;;;;38.73;15.60;;;;;;;2.37;67.90;97441.75;4968550;28;20180;-67
2023/02/15 09:20:27;;;;;;;54.67;16.73;;;;;;;2.49;67.48;97436.63;4968704;28;20185;-67
2023/02/15 09:22:54;;;;;;;21.17;14.83;;;;;;;2.26;68.15;97439.09;4968906;28;20464;-67
2023/02/15 09:25:19;;;;;;;32.00;15.00;;;;;;;2.28;68.28;97438.22;4969111;28;20454;-68
2023/02/15 09:27:45;;;;;;;23.13;13.90;;;;;;;2.21;68.64;97439.06;4968980;28;20429;-68
2023/02/15 09:30:11;;;;;;;26.53;14.90;;;;;;;2.44;68.33;97435.75;4968267;28;20200;-70
2023/02/15 09:32:36;;;;;;;24.17;14.30;;;;;;;2.48;68.49;97440.06;4967894;28;20188;-69
2023/02/15 09:35:02;;;;;;;24.10;15.30;;;;;;;2.60;68.43;97427.16;4967686;28;20433;-68
2023/02/15 09:37:27;;;;;;;25.33;15.00;;;;;;;2.62;68.14;97425.47;4966028;28;20580;-68
2023/02/15 09:39:53;;;;;;;26.07;14.73;;;;;;;2.56;69.18;97429.75;4968137;28;21303;-69
2023/02/15 09:42:57;;;;;;;23.03;14.53;;;;;;;2.44;69.51;97425.38;4967173;28;20205;-69
2023/02/15 09:45:31;;;;;;;27.77;15.30;;;;;;;2.52;69.34;97426.25;4967431;28;21240;-68
2023/02/15 09:48:21;;;;;;;20.67;14.30;;;;;;;2.74;68.85;97433.28;4966888;28;20579;-69
2023/02/15 09:50:52;;;;;;;21.20;14.03;;;;;;;2.62;68.84;97442.72;4950484;28;20420;-70
2023/02/15 09:53:38;;;;;;;19.13;13.47;;;;;;;2.74;68.35;97429.78;4963723;28;20437;-69
2023/02/15 09:56:18;;;;;;;29.70;15.90;;;;;;;2.83;67.65;97439.34;4970305;28;20888;-69
2023/02/15 09:58:47;;;;;;;17.77;13.17;;;;;;;2.58;68.01;97441.84;4970433;28;20972;-69
2023/02/15 10:01:19;;;;;;;21.10;15.03;;;;;;;2.63;67.99;97431.50;4968299;28;20427;-69
2023/02/15 10:04:09;;;;;;;22.63;14.73;;;;;;;2.60;68.02;97431.47;4964806;28;20476;-69
2023/02/15 10:06:49;;;;;;;25.37;16.23;;;;;;;2.49;69.10;97441.81;4967399;28;20440;-68
2023/02/15 10:09:37;;;;;;;21.70;13.47;;;;;;;2.84;67.55;97425.53;4973890;28;20439;-67
2023/02/15 10:12:30;;;;;;;19.97;12.90;;;;;;;2.69;67.68;97432.41;4974450;28;20432;-70
2023/02/15 10:15:27;;;;;;;19.60;13.87;;;;;;;2.67;67.69;97431.53;4968048;28;20511;-70
2023/02/15 10:18:09;;;;;;;19.70;15.90;;;;;;;2.71;67.97;97428.06;4973874;28;20424;-69
2023/02/15 10:20:59;;;;;;;24.47;15.13;;;;;;;2.84;67.39;97434.16;4972996;28;20424;-68
2023/02/15 10:23:52;;;;;;;23.73;15.97;;;;;;;2.75;68.09;97419.44;4966849;28;20479;-69
2023/02/15 10:26:19;;;;;;;30.07;14.83;;;;;;;2.81;68.19;97430.69;4973756;28;20417;-68
2023/02/15 10:28:49;;;;;;;33.20;16.40;;;;;;;2.91;68.02;97424.69;4973762;28;20444;-70
2023/02/15 10:31:33;;;;;;;17.20;13.03;;;;;;;2.94;68.69;97429.88;4973753;28;20425;-69
2023/02/15 10:33:58;;;;;;;23.17;15.80;;;;;;;3.01;68.30;97422.97;4971392;28;20456;-70
2023/02/15 10:36:39;;;;;;;27.80;16.40;;;;;;;2.96;67.96;97422.97;4973239;28;20471;-69
2023/02/15 10:39:36;;;;;;;28.20;16.43;;;;;;;3.15;67.75;97414.34;4973206;28;20209;-67
2023/02/15 10:42:07;;;;;;;22.03;15.20;;;;;;;3.20;67.67;97408.31;4979023;28;20555;-67
2023/02/15 10:44:32;;;;;;;20.57;14.73;;;;;;;3.11;67.90;97407.41;4972727;28;20487;-68
2023/02/15 10:47:13;;;;;;;23.37;14.50;;;;;;;3.02;68.37;97402.22;4972509;28;20515;-69
2023/02/15 10:50:01;;;;;;;19.40;13.97;;;;;;;3.07;68.50;97403.13;4973374;28;20236;-70
2023/02/15 10:52:40;;;;;;;21.60;14.80;;;;;;;3.17;68.39;97394.47;4973924;28;20412;-69
2023/02/15 10:55:05;;;;;;;18.13;14.17;;;;;;;2.87;68.86;97386.66;4971893;28;20489;-69
2023/02/15 10:57:36;;;;;;;20.67;14.33;;;;;;;3.26;67.98;97388.44;4973048;28;20527;-68
2023/02/15 11:00:28;;;;;;;47.63;17.73;;;;;;;3.11;68.16;97391.84;4973151;28;20428;-69
2023/02/15 11:03:36;;;;;;;40.10;17.00;;;;;;;3.56;67.48;97384.09;4972540;28;20592;-69
2023/02/15 11:06:10;;;;;;;22.53;13.70;;;;;;;3.41;67.67;97379.78;4967909;28;20444;-68
2023/02/15 11:08:44;;;;;;;25.67;15.10;;;;;;;3.76;66.65;97369.38;4972314;28;20523;-70
2023/02/15 11:11:16;;;;;;;18.87;14.20;;;;;;;3.96;65.41;97368.47;4973399;28;20416;-69
2023/02/15 11:13:49;;;;;;;23.57;16.30;;;;;;;4.10;64.66;97365.84;4972498;28;20439;-70
2023/02/15 11:16:24;;;;;;;19.70;14.30;;;;;;;4.07;64.30;97358.94;4972818;28;20483;-68
2023/02/15 11:19:23;;;;;;;24.03;14.67;;;;;;;4.01;65.39;97354.59;4970448;28;20474;-69
2023/02/15 11:21:55;;;;;;;24.15;15.10;;;;;;;4.16;65.06;97355.44;4967842;28;20341;-69
2023/02/15 11:24:21;;;;;;;20.60;15.03;;;;;;;4.18;65.33;97351.97;4969892;28;20890;-69
2023/02/15 11:27:12;;;;;;;23.13;15.50;;;;;;;4.36;64.20;97347.56;4968643;28;20456;-69
2023/02/15 11:29:43;;;;;;;21.77;15.33;;;;;;;4.38;64.65;97345.84;4984031;28;21001;-69
2023/02/15 11:32:21;;;;;;;18.73;15.87;;;;;;;4.44;64.73;97345.78;4969912;28;20416;-70
2023/02/15 11:34:55;;;;;;;22.17;16.57;;;;;;;4.06;65.83;97338.16;4958180;28;20436;-68
2023/02/15 11:37:32;;;;;;;23.50;16.60;;;;;;;4.19;65.56;97327.72;4969770;28;20420;-69
2023/02/15 11:39:57;;;;;;;25.00;18.17;;;;;;;4.40;64.69;97336.31;4969335;28;20420;-69
2023/02/15 11:42:25;;;;;;;24.83;18.10;;;;;;;4.51;64.48;97329.28;4968749;28;20471;-69
2023/02/15 11:45:18;;;;;;;22.47;18.53;;;;;;;4.68;63.86;97331.81;4969721;28;20167;-70
2023/02/15 11:47:44;;;;;;;26.60;20.13;;;;;;;4.95;63.16;97333.38;4967664;28;20475;-69
2023/02/15 11:50:22;;;;;;;35.80;18.43;;;;;;;5.04;62.71;97324.66;4968605;28;20437;-71
2023/02/15 11:52:51;;;;;;;30.40;22.13;;;;;;;5.28;61.78;97328.81;4964947;28;20212;-69
2023/02/15 11:55:23;;;;;;;26.33;18.83;;;;;;;5.38;62.10;97324.38;4962143;28;20416;-69
2023/02/15 11:58:00;;;;;;;33.67;19.27;;;;;;;5.69;61.57;97325.84;4966786;28;20429;-69
2023/02/15 12:00:26;;;;;;;37.60;24.87;;;;;;;6.09;60.21;97311.53;4968581;28;20868;-68
2023/02/15 12:02:55;;;;;;;43.70;19.50;;;;;;;6.06;59.72;97317.66;4969352;28;20469;-69
2023/02/15 12:05:23;;;;;;;42.80;18.70;;;;;;;6.33;59.10;97307.78;4969362;28;20657;-68